createdAt,value
2019-02-16T00:00:54.478Z,41.21
2019-02-16T00:03:23.767Z,41.18
2019-02-16T00:05:53.131Z,40.96
2019-02-16T00:08:22.370Z,41.61
2019-02-16T00:10:51.699Z,41.14
2019-02-16T00:13:21.003Z,42.26
2019-02-16T00:15:50.278Z,41.65
2019-02-16T00:18:19.626Z,41.68
2019-02-16T00:20:48.898Z,41.73
2019-02-16T00:23:18.149Z,41.10
2019-02-16T00:25:47.395Z,41.38
2019-02-16T00:28:16.672Z,41.55
2019-02-16T00:30:45.920Z,40.92
2019-02-16T00:33:15.195Z,41.55
2019-02-16T00:35:44.490Z,41.33
2019-02-16T00:38:13.746Z,41.29
2019-02-16T00:40:43.036Z,41.40
2019-02-16T00:43:12.271Z,41.52
2019-02-16T00:45:41.549Z,41.92
2019-02-16T00:48:10.819Z,41.74
2019-02-16T00:50:40.172Z,41.50
2019-02-16T00:53:09.469Z,41.37
2019-02-16T00:55:38.725Z,42.27
2019-02-16T00:58:08.008Z,41.72
2019-02-16T01:00:37.386Z,41.18
2019-02-16T01:03:06.676Z,42.05
2019-02-16T01:05:35.958Z,41.84
2019-02-16T01:08:05.201Z,41.87
2019-02-16T01:10:34.445Z,41.85
2019-02-16T01:13:03.724Z,43.15
2019-02-16T01:15:32.991Z,43.62
2019-02-16T01:18:02.256Z,44.36
2019-02-16T01:20:31.494Z,42.96
2019-02-16T01:23:00.797Z,42.93
2019-02-16T01:25:30.048Z,43.03
2019-02-16T01:27:59.305Z,43.32
2019-02-16T01:30:28.539Z,42.85
2019-02-16T01:32:57.950Z,43.14
2019-02-16T01:35:30.303Z,44.70
2019-02-16T01:37:59.574Z,45.09
2019-02-16T01:40:28.786Z,44.41
2019-02-16T01:42:58.059Z,45.01
2019-02-16T01:45:27.311Z,44.34
2019-02-16T01:47:56.599Z,45.30
2019-02-16T01:50:25.927Z,44.61
2019-02-16T01:52:55.180Z,45.30
2019-02-16T01:55:24.440Z,46.41
2019-02-16T01:57:53.680Z,45.59
2019-02-16T02:00:23.007Z,45.03
2019-02-16T02:02:52.255Z,44.70
2019-02-16T02:05:21.576Z,45.79
2019-02-16T02:07:50.834Z,45.21
2019-02-16T02:10:20.165Z,45.06
2019-02-16T02:12:49.375Z,45.34
2019-02-16T02:15:18.635Z,45.46
2019-02-16T02:17:48.125Z,45.43
2019-02-16T02:20:17.507Z,45.12
2019-02-16T02:22:46.768Z,45.20
2019-02-16T02:25:16.010Z,44.91
2019-02-16T02:27:45.220Z,45.13
2019-02-16T02:30:14.526Z,45.19
2019-02-16T02:32:43.812Z,45.23
2019-02-16T02:35:13.189Z,45.37
2019-02-16T02:37:42.425Z,45.54
2019-02-16T02:40:11.753Z,45.15
2019-02-16T02:42:41.197Z,45.14
2019-02-16T02:45:11.081Z,45.66
2019-02-16T02:47:40.356Z,45.83
2019-02-16T02:50:09.732Z,46.14
2019-02-16T02:52:38.935Z,46.35
2019-02-16T02:55:08.414Z,46.26
2019-02-16T02:57:37.689Z,46.89
2019-02-16T03:00:08.115Z,46.64
2019-02-16T03:02:37.375Z,46.79
2019-02-16T03:05:08.733Z,46.37
2019-02-16T03:07:37.954Z,47.38
2019-02-16T03:10:07.708Z,46.78
2019-02-16T03:12:37.015Z,47.08
2019-02-16T03:15:06.952Z,47.05
2019-02-16T03:17:36.319Z,47.88
2019-02-16T03:20:06.038Z,47.88
2019-02-16T03:23:12.635Z,47.50
2019-02-16T03:25:43.635Z,47.32
2019-02-16T03:28:38.873Z,47.40
2019-02-16T03:31:33.971Z,47.62
2019-02-16T03:34:09.370Z,47.31
2019-02-16T03:37:11.087Z,47.54
2019-02-16T03:39:44.043Z,46.93
2019-02-16T03:42:13.315Z,47.42
2019-02-16T03:44:42.556Z,47.65
2019-02-16T03:47:11.798Z,47.66
2019-02-16T03:49:41.041Z,47.48
2019-02-16T03:52:13.948Z,47.70
2019-02-16T03:54:41.472Z,47.42
2019-02-16T03:57:10.737Z,47.79
2019-02-16T03:59:40.033Z,48.02
2019-02-16T04:02:09.294Z,48.22
2019-02-16T04:04:38.565Z,47.64
2019-02-16T04:07:07.836Z,48.08
2019-02-16T04:09:37.103Z,47.79
2019-02-16T04:12:06.355Z,47.79
2019-02-16T04:14:35.628Z,47.89
2019-02-16T04:17:04.896Z,47.71
2019-02-16T04:19:34.114Z,47.21
2019-02-16T04:22:03.369Z,47.23
2019-02-16T04:24:32.637Z,47.89
2019-02-16T04:27:01.865Z,47.87
2019-02-16T04:29:31.248Z,47.79
2019-02-16T04:32:00.491Z,47.43
2019-02-16T04:34:32.492Z,47.46
2019-02-16T04:37:01.820Z,48.18
2019-02-16T04:39:31.072Z,47.94
2019-02-16T04:42:00.288Z,48.61
2019-02-16T04:44:29.501Z,48.27
2019-02-16T04:46:58.730Z,48.27
2019-02-16T04:49:28.009Z,48.59
2019-02-16T04:51:57.253Z,48.51
2019-02-16T04:54:26.501Z,49.18
2019-02-16T04:56:55.800Z,49.07
2019-02-16T04:59:25.157Z,48.92
2019-02-16T05:01:54.543Z,48.46
2019-02-16T05:04:23.853Z,48.57
2019-02-16T05:06:53.231Z,48.98
2019-02-16T05:09:22.448Z,48.72
2019-02-16T05:11:52.012Z,48.72
2019-02-16T05:14:21.266Z,48.74
2019-02-16T05:16:50.507Z,48.67
2019-02-16T05:19:19.697Z,49.13
2019-02-16T05:21:48.963Z,49.27
2019-02-16T05:24:18.269Z,49.64
2019-02-16T05:26:47.528Z,49.32
2019-02-16T05:29:16.841Z,49.41
2019-02-16T05:31:46.447Z,49.30
2019-02-16T05:34:15.685Z,49.58
2019-02-16T05:36:44.961Z,49.99
2019-02-16T05:39:14.185Z,49.67
2019-02-16T05:41:43.462Z,48.76
2019-02-16T05:44:12.701Z,48.82
2019-02-16T05:46:42.049Z,48.55
2019-02-16T05:49:11.269Z,49.07
2019-02-16T05:51:40.539Z,48.92
2019-02-16T05:54:09.753Z,48.17
2019-02-16T05:56:39.027Z,48.66
2019-02-16T05:59:08.374Z,48.13
2019-02-16T06:01:37.633Z,48.51
2019-02-16T06:04:06.962Z,50.00
2019-02-16T06:06:36.179Z,49.25
2019-02-16T06:09:06.347Z,49.04
2019-02-16T06:11:35.569Z,49.30
2019-02-16T06:14:04.956Z,49.29
2019-02-16T06:16:34.240Z,49.67
2019-02-16T06:19:03.605Z,48.71
2019-02-16T06:21:32.875Z,48.82
2019-02-16T06:24:02.745Z,49.18
2019-02-16T06:26:32.031Z,47.86
2019-02-16T06:29:01.329Z,47.88
2019-02-16T06:31:30.638Z,48.20
2019-02-16T06:33:59.932Z,48.28
2019-02-16T06:36:36.413Z,47.10
2019-02-16T06:39:06.431Z,46.09
2019-02-16T06:41:35.741Z,48.79
2019-02-16T06:44:05.003Z,49.88
2019-02-16T06:46:34.328Z,50.54
2019-02-16T06:49:03.613Z,50.34
2019-02-16T06:51:32.864Z,50.40
2019-02-16T06:54:02.168Z,49.92
2019-02-16T06:56:39.476Z,49.75
2019-02-16T06:59:08.754Z,47.46
2019-02-16T07:01:38.039Z,47.47
2019-02-16T07:04:07.389Z,47.45
2019-02-16T07:06:36.689Z,47.46
2019-02-16T07:09:06.608Z,47.36
2019-02-16T07:11:36.167Z,47.54
2019-02-16T07:14:05.678Z,47.69
2019-02-16T07:16:54.367Z,48.19
2019-02-16T07:19:45.407Z,47.98
2019-02-16T07:22:19.859Z,47.18
2019-02-16T07:24:49.116Z,47.46
2019-02-16T07:27:18.422Z,47.02
2019-02-16T07:29:47.720Z,46.99
2019-02-16T07:32:17.459Z,46.87
2019-02-16T07:34:46.720Z,46.94
2019-02-16T07:37:15.990Z,46.70
2019-02-16T07:39:45.299Z,46.46
2019-02-16T07:42:14.551Z,46.64
2019-02-16T07:44:51.825Z,46.22
2019-02-16T07:47:55.302Z,46.55
2019-02-16T07:50:41.717Z,46.28
2019-02-16T07:53:16.689Z,46.38
2019-02-16T07:55:52.853Z,46.23
2019-02-16T07:58:53.305Z,46.09
2019-02-16T08:01:38.052Z,46.29
2019-02-16T08:04:38.481Z,45.85
2019-02-16T08:07:29.501Z,46.09
2019-02-16T08:10:16.601Z,46.83
2019-02-16T08:12:53.266Z,46.20
2019-02-16T08:15:41.472Z,46.40
2019-02-16T08:18:34.570Z,45.97
2019-02-16T08:21:11.163Z,46.24
2019-02-16T08:23:58.541Z,46.28
2019-02-16T08:26:52.985Z,45.07
2019-02-16T08:29:47.268Z,45.61
2019-02-16T08:32:22.844Z,45.71
2019-02-16T08:35:11.046Z,44.96
2019-02-16T08:38:05.510Z,45.51
2019-02-16T08:40:42.928Z,45.75
2019-02-16T08:43:46.308Z,45.04
2019-02-16T08:46:40.694Z,44.94
2019-02-16T08:49:27.795Z,44.95
2019-02-16T08:52:14.323Z,44.13
2019-02-16T08:55:05.340Z,43.91
2019-02-16T08:57:52.179Z,43.00
2019-02-16T09:00:49.457Z,41.53
2019-02-16T09:03:52.869Z,41.91
2019-02-16T09:06:28.671Z,41.37
2019-02-16T09:09:25.305Z,41.87
2019-02-16T09:12:22.750Z,41.41
2019-02-16T09:15:09.270Z,41.70
2019-02-16T09:17:57.601Z,41.26
2019-02-16T09:20:57.917Z,41.53
2019-02-16T09:23:44.891Z,41.91
2019-02-16T09:26:45.258Z,41.62
2019-02-16T09:29:36.234Z,40.85
2019-02-16T09:32:24.562Z,40.32
2019-02-16T09:34:59.744Z,40.04
2019-02-16T09:37:46.874Z,39.92
2019-02-16T09:40:34.022Z,40.16
2019-02-16T09:43:14.163Z,40.70
2019-02-16T09:46:01.079Z,40.82
2019-02-16T09:48:35.507Z,41.20
2019-02-16T09:51:21.991Z,39.60
2019-02-16T09:54:10.500Z,40.14
2019-02-16T09:56:47.572Z,39.82
2019-02-16T09:59:30.966Z,39.00
2019-02-16T10:02:15.485Z,38.87
2019-02-16T10:05:06.349Z,38.83
2019-02-16T10:07:54.675Z,38.98
2019-02-16T10:10:30.384Z,38.01
2019-02-16T10:13:20.842Z,38.29
2019-02-16T10:16:03.943Z,37.15
2019-02-16T10:18:43.907Z,37.71
2019-02-16T10:21:32.196Z,37.79
2019-02-16T10:24:29.657Z,38.28
2019-02-16T10:27:27.241Z,37.67
2019-02-16T10:30:15.562Z,38.26
2019-02-16T10:33:02.662Z,37.73
2019-02-16T10:36:09.193Z,36.92
2019-02-16T10:39:08.426Z,36.03
2019-02-16T10:41:56.894Z,35.37
2019-02-16T10:44:48.095Z,38.19
2019-02-16T10:47:42.532Z,36.91
2019-02-16T10:50:36.802Z,36.20
2019-02-16T10:53:17.338Z,35.82
2019-02-16T10:56:20.799Z,37.09
2019-02-16T10:59:10.806Z,36.52
2019-02-16T11:02:08.147Z,37.28
2019-02-16T11:04:59.342Z,36.25
2019-02-16T11:07:47.657Z,35.98
2019-02-16T11:10:34.698Z,34.85
2019-02-16T11:13:21.795Z,34.83
2019-02-16T11:16:08.968Z,35.70
2019-02-16T11:19:09.205Z,34.80
2019-02-16T11:22:04.385Z,35.01
2019-02-16T11:24:58.638Z,35.07
2019-02-16T11:27:49.982Z,35.22
2019-02-16T11:30:44.372Z,34.48
2019-02-16T11:33:38.781Z,35.74
2019-02-16T11:36:33.132Z,35.55
2019-02-16T11:39:14.805Z,35.19
2019-02-16T11:42:03.002Z,34.96
2019-02-16T11:44:51.253Z,34.93
2019-02-16T11:47:47.536Z,34.70
2019-02-16T11:50:35.665Z,34.73
2019-02-16T11:53:27.277Z,34.74
2019-02-16T11:56:13.521Z,34.91
2019-02-16T11:59:08.180Z,34.89
2019-02-16T12:01:47.009Z,33.91
2019-02-16T12:04:37.086Z,34.32
2019-02-16T12:07:15.989Z,34.38
2019-02-16T12:10:10.485Z,34.61
2019-02-16T12:13:07.957Z,34.67
2019-02-16T12:15:55.338Z,33.69
2019-02-16T12:18:35.409Z,33.50
2019-02-16T12:21:17.545Z,33.19
2019-02-16T12:23:56.940Z,32.76
2019-02-16T12:26:40.698Z,32.53
2019-02-16T12:29:29.605Z,34.56
2019-02-16T12:32:27.030Z,32.76
2019-02-16T12:35:13.806Z,32.04
2019-02-16T12:37:52.714Z,32.09
2019-02-16T12:40:28.230Z,32.44
2019-02-16T12:43:10.414Z,32.30
2019-02-16T12:45:51.448Z,32.35
2019-02-16T12:48:54.298Z,31.81
2019-02-16T12:51:33.911Z,31.23
2019-02-16T12:54:25.165Z,30.64
2019-02-16T12:57:04.113Z,31.42
2019-02-16T12:59:51.138Z,32.21
2019-02-16T13:02:38.178Z,31.38
2019-02-16T13:05:31.003Z,31.45
2019-02-16T13:08:31.374Z,31.50
2019-02-16T13:11:10.062Z,31.58
2019-02-16T13:13:50.751Z,31.11
2019-02-16T13:16:38.927Z,31.67
2019-02-16T13:19:31.696Z,32.63
2019-02-16T13:22:14.433Z,32.26
2019-02-16T13:29:26.743Z,32.75
2019-02-16T13:32:25.857Z,32.60
2019-02-16T13:35:08.322Z,32.10
2019-02-16T13:42:11.650Z,31.60
2019-02-16T13:44:58.777Z,31.17
2019-02-16T13:47:36.582Z,31.85
2019-02-16T13:50:20.357Z,31.60
2019-02-16T13:53:10.427Z,32.57
2019-02-16T13:56:04.669Z,32.53
2019-02-16T13:58:43.472Z,32.47
2019-02-16T14:01:32.762Z,32.21
2019-02-16T14:04:38.634Z,32.11
2019-02-16T14:07:25.386Z,31.90
2019-02-16T14:10:22.722Z,30.79
2019-02-16T14:13:29.095Z,30.43
2019-02-16T14:16:12.761Z,30.95
2019-02-16T14:18:43.306Z,30.21
2019-02-16T14:21:12.687Z,30.76
2019-02-16T14:23:41.974Z,31.60
2019-02-16T14:26:11.346Z,32.98
2019-02-16T14:28:40.638Z,32.52
2019-02-16T14:31:10.250Z,32.15
2019-02-16T14:33:39.532Z,32.12
2019-02-16T14:36:08.856Z,32.54
2019-02-16T14:38:46.238Z,31.74
2019-02-16T14:41:15.718Z,32.20
2019-02-16T14:43:45.032Z,31.53
2019-02-16T14:46:14.400Z,31.95
2019-02-16T14:48:43.657Z,31.73
2019-02-16T14:51:12.962Z,31.84
2019-02-16T14:53:42.402Z,32.01
2019-02-16T14:56:11.695Z,32.58
2019-02-16T14:58:40.977Z,32.20
2019-02-16T15:01:10.294Z,32.21
2019-02-16T15:03:39.671Z,31.96
2019-02-16T15:06:09.000Z,32.70
2019-02-16T15:08:38.395Z,32.64
2019-02-16T15:11:07.655Z,33.35
2019-02-16T15:13:36.982Z,33.26
2019-02-16T15:16:07.287Z,32.76
2019-02-16T15:18:36.657Z,33.40
2019-02-16T15:21:08.353Z,33.23
2019-02-16T15:23:38.628Z,34.26
2019-02-16T15:26:08.084Z,33.45
2019-02-16T15:28:37.547Z,33.26
2019-02-16T15:31:06.849Z,33.49
2019-02-16T15:33:36.219Z,33.67
2019-02-16T15:36:05.712Z,34.29
2019-02-16T15:38:35.101Z,33.76
2019-02-16T15:41:04.415Z,34.35
2019-02-16T15:43:33.801Z,34.54
2019-02-16T15:46:03.154Z,34.19
2019-02-16T15:48:32.555Z,34.19
2019-02-16T15:51:01.800Z,34.24
2019-02-16T15:53:31.158Z,34.47
2019-02-16T15:56:09.857Z,34.67
2019-02-16T15:58:31.623Z,34.83
2019-02-16T16:01:01.045Z,34.91
2019-02-16T16:03:32.141Z,34.70
2019-02-16T16:06:01.437Z,35.46
2019-02-16T16:08:49.711Z,36.14
2019-02-16T16:11:44.065Z,35.83
2019-02-16T16:14:35.406Z,35.86
2019-02-16T16:17:29.461Z,36.03
2019-02-16T16:20:24.362Z,36.21
2019-02-16T16:23:27.947Z,36.93
2019-02-16T16:26:05.153Z,37.64
2019-02-16T16:29:02.314Z,37.29
2019-02-16T16:31:56.626Z,37.37
2019-02-16T16:34:43.916Z,37.31
2019-02-16T16:37:37.994Z,37.77
2019-02-16T16:40:22.667Z,37.99
2019-02-16T16:43:10.931Z,38.43
2019-02-16T16:45:47.642Z,38.45
2019-02-16T16:48:28.748Z,38.49
2019-02-16T16:51:15.994Z,38.81
2019-02-16T16:54:09.085Z,38.92
2019-02-16T16:57:00.507Z,39.81
2019-02-16T16:59:57.920Z,39.44
2019-02-16T17:02:44.862Z,39.36
2019-02-16T17:05:33.157Z,39.72
2019-02-16T17:08:24.657Z,40.33
2019-02-16T17:11:24.611Z,40.78
2019-02-16T17:14:11.740Z,40.69
2019-02-16T17:17:01.178Z,41.15
2019-02-16T17:19:40.843Z,40.72
2019-02-16T17:22:29.119Z,41.48
2019-02-16T17:25:22.479Z,41.27
2019-02-16T17:28:09.671Z,40.70
2019-02-16T17:30:51.488Z,40.84
2019-02-16T17:33:33.074Z,40.92
2019-02-16T17:36:20.222Z,40.92
2019-02-16T17:39:10.964Z,40.96
2019-02-16T17:42:02.348Z,41.33
2019-02-16T17:45:03.126Z,42.00
2019-02-16T17:47:57.035Z,42.72
2019-02-16T17:50:54.671Z,43.47
2019-02-16T17:53:48.918Z,43.73
2019-02-16T17:56:26.463Z,44.25
2019-02-16T17:59:02.570Z,44.77
2019-02-16T18:02:05.932Z,44.71
2019-02-16T18:04:59.448Z,44.45
2019-02-16T18:07:40.241Z,45.16
2019-02-16T18:10:15.850Z,45.89
2019-02-16T18:13:03.000Z,46.42
2019-02-16T18:15:42.092Z,45.84
2019-02-16T18:18:30.458Z,46.34
2019-02-16T18:21:21.784Z,46.40
2019-02-16T18:24:08.367Z,47.09
2019-02-16T18:26:59.590Z,46.83
2019-02-16T18:30:00.027Z,46.23
2019-02-16T18:32:47.001Z,46.67
2019-02-16T18:35:34.231Z,47.49
2019-02-16T18:38:16.524Z,47.96
2019-02-16T18:41:03.647Z,48.10
2019-02-16T18:44:12.719Z,48.35
2019-02-16T18:47:08.356Z,48.46
2019-02-16T18:49:44.978Z,48.79
2019-02-16T18:52:39.377Z,49.16
2019-02-16T18:55:22.888Z,49.81
2019-02-16T18:58:09.801Z,50.28
2019-02-16T19:00:55.312Z,49.74
2019-02-16T19:03:52.588Z,49.88
2019-02-16T19:06:45.019Z,50.12
2019-02-16T19:09:30.171Z,50.66
2019-02-16T19:12:32.454Z,50.87
2019-02-16T19:15:27.455Z,50.65
2019-02-16T19:18:18.565Z,50.29
2019-02-16T19:21:07.775Z,50.74
2019-02-16T19:23:44.845Z,50.36
2019-02-16T19:26:40.799Z,50.52
2019-02-16T19:29:43.988Z,51.28
2019-02-16T19:32:40.780Z,51.19
2019-02-16T19:35:57.054Z,51.54
2019-02-16T19:38:40.850Z,52.77
2019-02-16T19:41:57.003Z,52.75
2019-02-16T19:44:41.250Z,53.00
2019-02-16T19:47:29.762Z,52.73
2019-02-16T19:50:40.901Z,51.97
2019-02-16T19:53:13.957Z,52.42
2019-02-16T19:56:07.842Z,52.28
2019-02-16T19:58:59.159Z,52.30
2019-02-16T20:01:50.591Z,52.25
2019-02-16T20:04:57.297Z,52.72
2019-02-16T20:07:39.711Z,53.14
2019-02-16T20:10:40.490Z,53.87
2019-02-16T20:13:38.209Z,53.67
2019-02-16T20:16:27.605Z,53.16
2019-02-16T20:19:34.486Z,53.25
2019-02-16T20:22:21.629Z,52.42
2019-02-16T20:25:19.272Z,52.69
2019-02-16T20:27:59.246Z,53.90
2019-02-16T20:30:50.579Z,54.47
2019-02-16T20:33:48.168Z,55.14
2019-02-16T20:36:34.904Z,53.81
2019-02-16T20:39:23.194Z,54.46
2019-02-16T20:42:04.084Z,54.91
2019-02-16T20:44:43.079Z,54.59
2019-02-16T20:47:38.013Z,54.34
2019-02-16T20:50:30.132Z,54.63
2019-02-16T20:53:17.319Z,54.90
2019-02-16T20:56:11.463Z,55.42
2019-02-16T20:59:03.751Z,55.54
2019-02-16T21:01:52.263Z,54.92
2019-02-16T21:04:32.844Z,55.80
2019-02-16T21:07:30.458Z,55.98
2019-02-16T21:10:17.406Z,55.62
2019-02-16T21:13:05.799Z,56.08
2019-02-16T21:15:40.848Z,56.24
2019-02-16T21:18:26.198Z,56.35
2019-02-16T21:21:14.665Z,56.05
2019-02-16T21:23:59.591Z,56.13
2019-02-16T21:26:39.865Z,56.54
2019-02-16T21:29:17.884Z,56.49
2019-02-16T21:32:12.269Z,55.79
2019-02-16T21:35:03.496Z,55.51
2019-02-16T21:37:55.108Z,55.89
2019-02-16T21:40:33.627Z,56.11
2019-02-16T21:43:24.789Z,56.60
2019-02-16T21:46:12.160Z,56.37
2019-02-16T21:48:47.442Z,55.37
2019-02-16T21:51:34.416Z,55.39
2019-02-16T21:54:13.115Z,56.05
2019-02-16T21:57:07.508Z,55.66
2019-02-16T21:59:59.041Z,56.28
2019-02-16T22:02:47.299Z,54.80
2019-02-16T22:05:35.575Z,56.62
2019-02-16T22:08:32.082Z,57.89
2019-02-16T22:11:23.684Z,58.09
2019-02-16T22:13:53.019Z,58.52
2019-02-16T22:16:22.377Z,58.30
2019-02-16T22:18:51.698Z,58.19
2019-02-16T22:21:21.009Z,57.80
2019-02-16T22:23:50.308Z,58.41
2019-02-16T22:26:19.652Z,57.90
2019-02-16T22:28:49.006Z,58.62
2019-02-16T22:31:18.364Z,58.36
2019-02-16T22:33:47.650Z,58.34
2019-02-16T22:36:17.023Z,58.98
2019-02-16T22:38:46.299Z,59.25
2019-02-16T22:41:15.614Z,58.61
2019-02-16T22:43:44.983Z,58.67
2019-02-16T22:46:14.233Z,58.66
2019-02-16T22:48:43.509Z,58.52
2019-02-16T22:51:12.862Z,58.33
2019-02-16T22:53:42.139Z,58.30
2019-02-16T22:56:11.437Z,58.26
2019-02-16T22:58:40.880Z,58.70
2019-02-16T23:01:10.603Z,58.01
2019-02-16T23:03:39.898Z,58.09
2019-02-16T23:06:09.302Z,58.11
2019-02-16T23:08:38.723Z,58.65
2019-02-16T23:11:08.082Z,58.92
2019-02-16T23:13:37.515Z,58.91
2019-02-16T23:16:06.845Z,59.66
2019-02-16T23:18:36.116Z,59.33
2019-02-16T23:21:05.445Z,59.56
2019-02-16T23:23:34.914Z,60.35
2019-02-16T23:26:04.329Z,60.36
2019-02-16T23:28:39.001Z,60.82
2019-02-16T23:31:04.648Z,58.23
2019-02-16T23:33:33.927Z,58.96
2019-02-16T23:36:03.258Z,57.70
2019-02-16T23:38:32.525Z,57.38
2019-02-16T23:41:01.800Z,57.52
2019-02-16T23:43:31.062Z,57.66
2019-02-16T23:46:00.329Z,57.69
2019-02-16T23:48:29.680Z,57.40
2019-02-16T23:50:58.940Z,58.52
2019-02-16T23:53:28.244Z,58.88
2019-02-16T23:55:57.520Z,59.74
2019-02-16T23:58:26.800Z,58.87
